createdAt,value
2022-11-23T00:04:47.319Z,23.7
2022-11-23T00:10:09.894Z,24
2022-11-23T00:15:33.630Z,23.3
2022-11-23T00:21:13.282Z,23
2022-11-23T00:26:51.347Z,22.9
2022-11-23T00:32:13.709Z,22.8
2022-11-23T00:37:52.048Z,22.6
2022-11-23T00:43:29.567Z,23.3
2022-11-23T00:48:52.531Z,24.2
2022-11-23T00:54:30.491Z,23.8
2022-11-23T01:00:08.905Z,23.3
2022-11-23T01:05:46.823Z,23.1
2022-11-23T01:11:25.533Z,22.9
2022-11-23T01:16:31.016Z,22.8
2022-11-23T01:21:37.305Z,22.6
2022-11-23T01:26:47.604Z,23.4
2022-11-23T01:31:43.167Z,24.3
2022-11-23T01:36:51.770Z,23.7
2022-11-23T01:42:02.112Z,23.3
2022-11-23T01:47:24.094Z,23.1
2022-11-23T01:52:45.642Z,22.9
2022-11-23T01:57:56.992Z,22.8
2022-11-23T02:03:03.678Z,22.6
2022-11-23T02:08:10.089Z,23.6
2022-11-23T02:13:47.959Z,24.3
2022-11-23T02:19:27.095Z,23.6
2022-11-23T02:25:03.733Z,23.2
2022-11-23T02:30:43.411Z,23
2022-11-23T02:36:20.674Z,22.8
2022-11-23T02:41:43.867Z,22.7
2022-11-23T02:47:21.484Z,23
2022-11-23T02:52:43.666Z,24.1
2022-11-23T02:58:20.681Z,23.7
2022-11-23T03:03:59.020Z,23.3
2022-11-23T03:09:36.049Z,23
2022-11-23T03:15:13.251Z,22.9
2022-11-23T03:20:35.729Z,22.8
2022-11-23T03:25:57.741Z,22.8
2022-11-23T03:31:35.090Z,23.7
2022-11-23T03:37:12.750Z,24.1
2022-11-23T03:42:51.341Z,23.4
2022-11-23T03:48:28.926Z,23
2022-11-23T03:54:06.976Z,22.9
2022-11-23T03:59:45.071Z,22.8
2022-11-23T04:05:23.389Z,22.6
2022-11-23T04:11:01.240Z,23.4
2022-11-23T04:16:39.052Z,24.1
2022-11-23T04:21:45.616Z,23.6
2022-11-23T04:27:27.072Z,23.2
2022-11-23T04:33:04.065Z,22.9
2022-11-23T04:38:10.175Z,22.8
2022-11-23T04:43:36.652Z,22.6
2022-11-23T04:49:13.672Z,22.8
2022-11-23T04:54:38.791Z,23.8
2022-11-23T05:00:16.486Z,23.8
2022-11-23T05:05:57.401Z,23.2
2022-11-23T05:11:35.475Z,22.9
2022-11-23T05:17:13.149Z,22.7
2022-11-23T05:22:50.655Z,22.6
2022-11-23T05:28:56.706Z,22.4
2022-11-23T05:34:19.501Z,23.8
2022-11-23T05:40:01.532Z,24.5
2022-11-23T05:44:52.680Z,23.6
2022-11-23T05:50:32.959Z,23.1
2022-11-23T05:55:54.625Z,22.8
2022-11-23T06:01:16.403Z,22.7
2022-11-23T06:06:56.325Z,22.5
2022-11-23T06:12:19.159Z,22.9
2022-11-23T06:17:41.623Z,24.1
2022-11-23T06:23:19.030Z,24.4
2022-11-23T06:28:58.410Z,23.5
2022-11-23T06:34:36.431Z,23.1
2022-11-23T06:40:19.142Z,22.9
2022-11-23T06:46:29.396Z,22.6
2022-11-23T06:52:12.564Z,22.6
2022-11-23T06:57:50.534Z,24
2022-11-23T07:03:28.170Z,24.6
2022-11-23T07:09:06.825Z,23.6
2022-11-23T07:14:45.155Z,23.2
2022-11-23T07:20:23.303Z,22.9
2022-11-23T07:26:05.930Z,22.8
2022-11-23T07:31:33.014Z,22.6
2022-11-23T07:37:16.675Z,23.3
2022-11-23T07:43:47.021Z,24.9
2022-11-23T07:49:27.198Z,24.3
2022-11-23T07:55:07.044Z,23.9
2022-11-23T08:00:44.502Z,23.6
2022-11-23T08:07:06.218Z,23.3
2022-11-23T08:12:48.931Z,23.3
2022-11-23T08:18:11.807Z,24.4
2022-11-23T08:23:55.507Z,25.1
2022-11-23T08:29:34.250Z,24.3
2022-11-23T08:35:12.418Z,23.9
2022-11-23T08:40:57.377Z,23.7
2022-11-23T08:46:40.663Z,23.4
2022-11-23T08:52:08.597Z,23.2
2022-11-23T08:57:46.688Z,24.1
2022-11-23T09:03:24.819Z,24.6
2022-11-23T09:09:08.814Z,24.1
2022-11-23T09:14:49.972Z,23.9
2022-11-23T09:20:32.055Z,23.6
2022-11-23T09:26:17.896Z,23.3
2022-11-23T09:32:01.480Z,23.1
2022-11-23T09:37:40.796Z,23.8
2022-11-23T09:43:43.830Z,24.5
2022-11-23T09:49:23.333Z,23.9
2022-11-23T09:55:01.366Z,23.4
2022-11-23T10:00:27.810Z,23.2
2022-11-23T10:06:06.635Z,23.1
2022-11-23T10:11:44.789Z,22.9
2022-11-23T10:17:27.410Z,23.9
2022-11-23T10:23:05.387Z,23.9
2022-11-23T10:28:43.543Z,23.3
2022-11-23T10:34:26.363Z,23
2022-11-23T10:40:11.174Z,22.8
2022-11-23T10:45:48.834Z,22.2
2022-11-23T10:51:27.180Z,21.9
2022-11-23T10:57:08.290Z,21.8
2022-11-23T11:02:46.821Z,22.1
2022-11-23T11:09:03.133Z,23.3
2022-11-23T11:14:43.174Z,23.6
2022-11-23T11:20:35.240Z,22.7
2022-11-23T11:26:13.528Z,22.6
2022-11-23T11:31:52.335Z,22.4
2022-11-23T11:37:35.159Z,22.3
2022-11-23T11:43:39.377Z,22.2
2022-11-23T11:49:47.433Z,22
2022-11-23T11:55:25.746Z,22.3
2022-11-23T12:00:54.642Z,23.4
2022-11-23T12:06:19.461Z,23.2
2022-11-23T12:11:59.115Z,22.9
2022-11-23T12:18:45.887Z,22.6
2022-11-23T12:23:38.590Z,22.2
2022-11-23T12:29:16.593Z,22.3
2022-11-23T12:34:54.843Z,22.3
2022-11-23T12:40:36.422Z,22.4
2022-11-23T12:46:04.240Z,23.4
2022-11-23T12:51:42.322Z,23.4
2022-11-23T12:57:21.605Z,23
2022-11-23T13:02:45.161Z,22.8
2022-11-23T13:08:43.187Z,22.6
2022-11-23T13:14:23.410Z,22.6
2022-11-23T13:19:50.523Z,22.4
2022-11-23T13:25:29.075Z,22.3
2022-11-23T13:31:48.145Z,23.4
2022-11-23T13:38:04.469Z,23.5
2022-11-23T13:43:46.233Z,22.9
2022-11-23T13:49:55.018Z,22.8
2022-11-23T13:55:37.808Z,22.7
2022-11-23T14:01:16.203Z,22.5
2022-11-23T14:07:01.173Z,22.3
2022-11-23T14:12:40.113Z,22.2
2022-11-23T14:18:18.538Z,22.6
2022-11-23T14:23:40.578Z,23.9
2022-11-23T14:29:41.581Z,23.6
2022-11-23T14:35:20.446Z,23.2
2022-11-23T14:41:02.977Z,22.9
2022-11-23T14:46:42.567Z,22.8
2022-11-23T14:52:20.987Z,22.5
2022-11-23T14:58:02.508Z,22.3
2022-11-23T15:04:09.061Z,22.2
2022-11-23T15:09:50.076Z,23
2022-11-23T15:15:12.178Z,23.9
2022-11-23T15:20:50.618Z,23.4
2022-11-23T15:26:59.331Z,23.1
2022-11-23T15:33:13.055Z,22.8
2022-11-23T15:38:23.752Z,22.8
2022-11-23T15:44:03.008Z,22.6
2022-11-23T15:49:43.647Z,22.4
2022-11-23T15:55:27.182Z,22.3
2022-11-23T16:01:06.900Z,22.8
2022-11-23T16:06:50.193Z,23.6
2022-11-23T16:13:03.544Z,23.3
2022-11-23T16:18:47.005Z,23.1
2022-11-23T16:24:31.702Z,22.6
2022-11-23T16:29:57.551Z,22.4
2022-11-23T16:35:38.944Z,22.4
2022-11-23T16:41:18.999Z,22.3
2022-11-23T16:47:01.405Z,22.3
2022-11-23T16:52:46.784Z,23.3
2022-11-23T16:59:02.117Z,23.3
2022-11-23T17:04:13.173Z,23.3
2022-11-23T17:09:58.394Z,23.1
2022-11-23T17:15:42.354Z,22.8
2022-11-23T17:21:27.297Z,22.7
2022-11-23T17:27:11.143Z,22.6
2022-11-23T17:32:49.637Z,22.4
2022-11-23T17:38:27.118Z,23.1
2022-11-23T17:44:06.135Z,24.4
2022-11-23T17:49:13.437Z,23.8
2022-11-23T17:54:51.077Z,23.3
2022-11-23T18:00:34.569Z,23
2022-11-23T18:05:57.993Z,22.8
2022-11-23T18:11:36.544Z,22.7
2022-11-23T18:17:15.431Z,22.5
2022-11-23T18:22:53.578Z,22.4
2022-11-23T18:28:36.157Z,23.1
2022-11-23T18:34:21.436Z,24.5
2022-11-23T18:40:03.445Z,23.6
2022-11-23T18:45:31.665Z,23.1
2022-11-23T18:50:57.507Z,22.9
2022-11-23T18:56:21.498Z,22.5
2022-11-23T19:02:34.885Z,22.3
2022-11-23T19:08:18.032Z,22.1
2022-11-23T19:13:57.380Z,22.1
2022-11-23T19:19:21.678Z,23.4
2022-11-23T19:25:05.184Z,23.9
2022-11-23T19:30:32.264Z,23.1
2022-11-23T19:35:41.203Z,22.8
2022-11-23T19:41:04.933Z,22.8
2022-11-23T19:46:51.927Z,22.8
2022-11-23T19:53:04.067Z,22.4
2022-11-23T19:58:37.539Z,22.3
2022-11-23T20:04:05.428Z,22.4
2022-11-23T20:09:48.037Z,23.4
2022-11-23T20:15:17.628Z,23.6
2022-11-23T20:21:00.016Z,22.9
2022-11-23T20:26:39.039Z,22.4
2022-11-23T20:32:22.210Z,22.1
2022-11-23T20:37:51.848Z,21.7
2022-11-23T20:43:15.076Z,21.6
2022-11-23T20:49:14.847Z,21.5
2022-11-23T20:54:54.327Z,21.9
2022-11-23T21:00:37.206Z,22.8
2022-11-23T21:06:16.791Z,22.7
2022-11-23T21:12:08.330Z,22.3
2022-11-23T21:18:03.888Z,22.1
2022-11-23T21:23:41.856Z,21.9
2022-11-23T21:29:19.863Z,21.8
2022-11-23T21:35:01.288Z,21.6
2022-11-23T21:40:28.075Z,21.5
2022-11-23T21:45:50.903Z,21.6
2022-11-23T21:50:58.669Z,22.5
2022-11-23T21:56:43.849Z,22.9
2022-11-23T22:02:12.105Z,22.3
2022-11-23T22:08:06.804Z,22
2022-11-23T22:13:37.082Z,21.9
2022-11-23T22:19:15.507Z,21.7
2022-11-23T22:24:53.672Z,21.6
2022-11-23T22:30:20.322Z,21.5
2022-11-23T22:35:43.823Z,21.8
2022-11-23T22:41:31.066Z,22.4
2022-11-23T22:47:13.003Z,22.9
2022-11-23T22:52:50.909Z,22.4
2022-11-23T22:58:17.126Z,22.4
2022-11-23T23:03:40.185Z,22.5
2022-11-23T23:09:18.460Z,22.6
2022-11-23T23:14:40.388Z,22.8
2022-11-23T23:20:18.644Z,23.6
2022-11-23T23:25:26.321Z,23.4
2022-11-23T23:31:03.703Z,22.8
2022-11-23T23:36:42.108Z,22.6
2022-11-23T23:42:19.429Z,22.7
2022-11-23T23:47:57.460Z,22.5
2022-11-23T23:53:35.461Z,22.7
2022-11-23T23:58:42.549Z,23.3
